WETTERDATEN

GESTERN
Time Temp. Taup. r.Fe. Windrich Windstärke Windböe Druck 1h Prec. 24h Prec.
00:06 15 6.6 57 270 0.3 0.8 1011.7 0.0000 0.0000
00:26 14.6 6.2 57 270 0.3 1.1 1011.4 0.0000 0.0000
00:46 14.3 6.4 59 292 0.8 1.1 1011.4 0.0000 0.0000
00:56 14.2 6.6 60 315 0.3 1.1 1011.4 0.0000 0.0000
01:07 14.1 6.2 59 270 0.3 1.4 1011.3 0.0000 0.0000
01:16 14 6.4 60 270 0.3 1.1 1011.3 0.0000 0.0000
01:26 13.9 6 59 270 0.3 1.1 1011.2 0.0000 0.0000
01:37 13.8 6.2 60 270 0.3 1.1 1011.1 0.0000 0.0000
01:47 13.7 6.1 60 270 0.3 1.1 1011.1 0.0000 0.0000
01:57 13.6 6 60 270 0.3 1.1 1011 0.0000 0.0000
02:06 13.5 5.9 60 270 0.3 1.1 1011 0.0000 0.0000
02:17 13.4 5.8 60 310 0.3 1.1 1011.1 0.0000 0.0000
02:27 13.3 5.7 60 308 0.3 1.1 1011 0.0000 0.0000
02:37 13.3 5.7 60 306 0.3 1.1 1011 0.0000 0.0000
02:47 13.2 5.6 60 270 0.3 1.1 1010.9 0.0000 0.0000
02:57 13.1 5.8 61 270 0.3 1.1 1010.7 0.0000 0.0000
03:07 12.9 5.6 61 270 0.3 1.1 1010.8 0.0000 0.0000
03:17 12.8 5.5 61 270 0.3 1.4 1010.7 0.0000 0.0000
03:28 12.6 5.5 62 270 0.3 1.1 1010.9 0.0000 0.0000
03:38 12.5 5.4 62 270 0.3 1.1 1010.8 0.0000 0.0000
03:47 12.2 5.1 62 270 0.3 1.1 1010.7 0.0000 0.0000
03:58 12.2 5.1 62 270 0.3 1.4 1010.7 0.0000 0.0000
04:08 12.1 5 62 270 0.3 1.1 1010.5 0.0000 0.0000
04:18 12.1 5 62 270 0.3 1.1 1010.6 0.0000 0.0000
04:28 12 5 62 270 0.3 1.1 1010.5 0.0000 0.0000
04:38 11.9 5.1 63 270 0.3 1.1 1010.3 0.0000 0.0000
04:48 11.7 4.9 63 270 0.3 1.1 1010.4 0.0000 0.0000
05:02 11.7 4.9 63 270 0.3 1.1 1010.3 0.0000 0.0000
05:12 11.6 5 64 270 0.3 1.1 1010.4 0.0000 0.0000
05:22 11.6 4.8 63 285 0.8 1.4 1010.5 0.0000 0.0000
05:31 11.5 4.9 64 280 0.8 1.1 1010.5 0.0000 0.0000
05:42 11.4 4.8 64 270 0.8 1.1 1010.4 0.0000 0.0000
05:52 11.2 4.7 64 270 0.3 1.1 1010.5 0.0000 0.0000
06:02 11.1 4.6 64 270 0.3 1.1 1010.5 0.0000 0.0000
06:13 11.1 4.8 65 270 0.8 1.1 1010.5 0.0000 0.0000
06:22 11.2 4.9 65 270 0.3 1.4 1010.6 0.0000 0.0000
06:32 11.3 5 65 270 0.3 1.1 1010.6 0.0000 0.0000
06:47 11.4 5.1 65 270 0.3 1.1 1010.8 0.0000 0.0000
06:56 11.4 5.1 65 270 0.3 1.4 1010.8 0.0000 0.0000
07:06 11.5 5.2 65 270 0.3 1.1 1011 0.0000 0.0000
07:17 11.6 5.3 65 270 0.3 1.1 1011.1 0.0000 0.0000
07:27 11.7 5.3 65 270 0.3 1.1 1011.1 0.0000 0.0000
07:37 11.9 5.8 66 302 0.3 1.1 1011.1 0.0000 0.0000
07:46 12.1 5.9 66 270 0.3 1.1 1011.1 0.0000 0.0000
07:57 12.3 6.1 66 270 0.3 1.4 1011.2 0.0000 0.0000
08:07 12.4 6.2 66 270 0.3 1.1 1011.3 0.0000 0.0000
08:17 12.5 6.3 66 270 0.3 1.1 1011.3 0.0000 0.0000
08:28 12.6 6.6 67 270 0.3 1.4 1011.4 0.0000 0.0000
08:37 12.8 6.8 67 270 0.3 1.1 1011.3 0.0000 0.0000
08:47 13.1 7.1 67 270 0.3 1.1 1011.1 0.0000 0.0000
08:57 13.2 7.2 67 270 0.3 1.1 1011.3 0.0000 0.0000
09:08 13.7 7.7 67 270 0.8 1.4 1011 0.0000 0.0000
09:18 14.2 8.2 67 270 0.8 1.4 1011.1 0.0000 0.0000
09:27 14.5 8.2 66 270 0.3 1.1 1011 0.0000 0.0000
09:38 14.8 8.5 66 270 0.3 1.1 1011 0.0000 0.0000
09:48 15.2 8.9 66 270 0.8 1.1 1010.8 0.0000 0.0000
09:58 15.7 9.4 66 270 0.3 1.4 1010.7 0.0000 0.0000
10:08 16.2 9.6 65 270 0.3 1.1 1010.6 0.0000 0.0000
10:18 16.6 9.5 63 270 0.3 1.4 1010.7 0.0000 0.0000
10:28 17.1 9.5 61 270 0.3 1.4 1010.8 0.0000 0.0000
10:38 17.5 9.2 58 270 0.3 1.4 1010.8 0.0000 0.0000
10:48 17.8 9.2 57 270 0.3 1.1 1010.6 0.0000 0.0000
11:08 18.5 9.6 56 270 0.3 1.1 1010.4 0.0000 0.0000
11:18 18.7 9.5 55 270 0.3 1.4 1010.4 0.0000 0.0000
11:29 18.9 9.4 54 270 0.3 1.4 1010.3 0.0000 0.0000
11:39 19.1 9.6 54 270 0.3 1.4 1010.2 0.0000 0.0000
11:49 19.3 9.8 54 270 0.3 1.1 1010.3 0.0000 0.0000
11:59 19.5 9.7 53 270 0.3 1.9 1010.1 0.0000 0.0000
12:09 19.7 9.9 53 270 0.3 1.4 1010.1 0.0000 0.0000
12:19 19.9 10 53 270 0.3 1.4 1010.1 0.0000 0.0000
12:29 20 9.9 52 290 0.8 1.9 1010 0.0000 0.0000
12:40 20.2 9.5 50 270 0.3 1.4 1010.1 0.0000 0.0000
12:50 20.3 9.8 51 315 0.3 2.2 1010 0.0000 0.0000
12:59 20.4 9.6 50 270 0.3 1.1 1009.9 0.0000 0.0000
13:09 20.5 10.6 53 270 0.3 1.1 1009.9 0.0000 0.0000
13:20 20.7 10.2 51 270 0.3 1.4 1009.9 0.0000 0.0000
13:29 20.7 9.9 50 270 0.3 2.2 1009.8 0.0000 0.0000
13:40 20.7 9.6 49 247 0.8 1.9 1009.8 0.0000 0.0000
13:50 20.6 9.8 50 270 0.3 1.4 1009.7 0.0000 0.0000
14:00 20.5 9.4 49 270 0.3 1.4 1009.7 0.0000 0.0000
14:10 20.6 10.1 51 270 0.3 1.4 1009.6 0.0000 0.0000
14:20 20.7 10.2 51 270 0.3 1.4 1009.6 0.0000 0.0000
14:31 20.6 9.8 50 270 0.3 1.4 1009.6 0.0000 0.0000
14:41 20.4 9.3 49 270 0.3 1.9 1009.6 0.0000 0.0000
14:50 20.6 9.5 49 270 0.3 1.9 1009.6 0.0000 0.0000
15:01 20.8 9.7 49 306 0.8 1.4 1009.5 0.0000 0.0000
15:11 21 9.9 49 270 0.3 1.4 1009.5 0.0000 0.0000
15:21 20.8 9.4 48 270 0.3 1.4 1009.4 0.0000 0.0000
15:31 20.7 9.6 49 270 0.3 1.4 1009.4 0.0000 0.0000
15:41 20.6 9.5 49 270 0.3 1.9 1009.5 0.0000 0.0000
15:51 20.8 10 50 270 0.3 1.4 1009.3 0.0000 0.0000
16:01 21.1 9.7 48 270 0.8 1.9 1009.1 0.0000 0.0000
16:11 21.3 9.9 48 270 0.3 1.4 1009.2 0.0000 0.0000
16:22 21.4 9.3 46 270 0.8 1.9 1009 0.0000 0.0000
16:32 21.5 9.7 47 270 0.8 1.9 1008.9 0.0000 0.0000
16:41 21.3 9.2 46 243 0.8 2.2 1009.1 0.0000 0.0000
16:52 21.1 9.4 47 253 0.8 2.5 1009.1 0.0000 0.0000
17:02 21 9.6 48 270 0.3 1.9 1009 0.0000 0.0000
17:12 20.9 9.8 49 249 0.8 2.5 1009 0.0000 0.0000
17:22 20.7 9.9 50 256 0.8 1.9 1008.9 0.0000 0.0000
17:33 20.7 10.2 51 270 0.3 1.4 1008.8 0.0000 0.0000
17:42 20.7 10.2 51 270 0.8 1.9 1008.5 0.0000 0.0000
17:52 20.8 10 50 270 0.3 1.4 1008.7 0.0000 0.0000
18:02 20.8 9.4 48 255 0.8 1.4 1008.6 0.0000 0.0000
18:13 20.8 9.7 49 270 0.3 1.4 1008.6 0.0000 0.0000
18:23 20.8 9.4 48 270 0.3 1.4 1008.4 0.0000 0.0000
18:33 20.8 9.4 48 270 0.3 2.2 1008.3 0.0000 0.0000
18:43 20.7 9.9 50 270 0.3 1.4 1008.4 0.0000 0.0000
18:53 20.7 9.9 50 270 0.3 1.1 1008.4 0.0000 0.0000
19:03 20.6 8.6 46 270 0.3 1.4 1008.2 0.0000 0.0000
19:13 20.5 6.8 41 248 0.8 1.4 1008.3 0.0000 0.0000
19:24 20.5 6.5 40 219 0.8 1.9 1008.3 0.0000 0.0000
19:33 20.4 6 39 228 0.8 2.5 1008.6 0.0000 0.0000
19:43 20.2 7.9 45 255 0.8 1.4 1008.5 0.0000 0.0000
19:54 20.1 8.4 47 230 0.3 1.9 1008.6 0.0000 0.0000
20:04 19.9 8.6 48 225 0.8 1.9 1008.7 0.0000 0.0000
20:14 19.8 8.5 48 221 0.8 2.2 1008.7 0.0000 0.0000
20:24 19.5 8.5 49 199 0.8 4.4 1009 0.0000 0.0000
20:34 19.3 8.3 49 213 0.8 2.2 1009.1 0.0000 0.0000
20:44 18.9 7.7 48 209 0.8 2.2 1009.3 0.0000 0.0000
20:54 18.7 7.8 49 201 0.8 2.2 1009.4 0.0000 0.0000
21:04 18.5 7.6 49 225 0.8 1.9 1009.5 0.0000 0.0000
21:15 18.2 6.7 47 187 0.8 1.9 1009.7 0.0000 0.0000
21:25 18 6.5 47 213 0.8 1.9 1009.7 0.0000 0.0000
21:34 17.8 6 46 203 0.8 1.9 1009.9 0.0000 0.0000
21:45 17.6 5.5 45 225 0.3 1.1 1010.1 0.0000 0.0000
21:55 17.4 5 44 189 0.8 1.9 1010.1 0.0000 0.0000
22:05 17.2 5.2 45 225 0.3 2.2 1010.3 0.0000 0.0000
22:15 17 4.7 44 225 0.3 1.4 1010.4 0.0000 0.0000
22:25 16.8 4.8 45 270 0.3 1.1 1010.6 0.0000 0.0000
22:35 16.6 5.3 47 239 0.3 1.1 1010.7 0.0000 0.0000
22:45 16.4 4.8 46 239 0.3 2.2 1010.7 0.0000 0.0000
22:56 16.1 3.9 44 270 0.3 1.9 1010.7 0.0000 0.0000
22:58 16.1 3.9 44 270 0.3 1.9 1010.7 0.0000 0.0000
23:08 15.9 4 45 304 0.3 1.1 1010.9 0.0000 0.0000
23:19 15.9 4 45 270 0.3 1.1 1011 0.0000 0.0000
23:29 15.7 3.5 44 270 0.3 1.1 1010.9 0.0000 0.0000
23:38 15.5 3 43 270 0.3 1.1 1011.2 0.0000 0.0000
23:48 15.3 2.8 43 239 0.3 1.9 1011.2 0.0000 0.0000

TAGESSTATISTIK

2019-05-24
TEMPERATUR
MITTEL
16.7
MAXIMUM
21.5
16:32
MINIMUM
11.1
06:02
LUFTDRUCK
MITTEL
1010.2
MAXIMUM
1011.7
00:06
MINIMUM
1008.2
19:03
TAUPUNKT
MITTEL
7.4
MAXIMUM
10.6
13:09
MINIMUM
2.8
23:48
FEUCHTIGKEIT
MITTEL
55
MAXIMUM
67
08:28
MINIMUM
39
19:33
WINDSTÄRKE
MITTEL
0.4
MAXIMUM
0.8
00:46
WINDBÖE
MITTEL
1.5
MAXIMUM
4.4
20:24
WINDRICHTUNG
VORHERRSCHENDE
W
78.4%
N
0.0
NO
0.0
O
0.0
SO
0.0
S
3.6
SW
12.2
W
78.4
NW
5.8
NIEDERSCHLAG
REGEN STUNDE
0.0
REGEN TAG
0.0
TEMPERATUR (°C)
MINIMUM
11.1
MAXIMUM
21.5
MITTEL
16.7
LUFTDRUCK (hpa)
MINIMUM
1008.2
MAXIMUM
1011.7
MITTEL
1010.2
MESSGERÄT